sensor_id;sensor_type;location;lat;lon;timestamp;pressure;altitude;pressure_sealevel;temperature;humidity
61384;BME280;63511;49.346;8.798;2023-05-01T00:01:49;100205.63;;;12.09;74.50
61384;BME280;63511;49.346;8.798;2023-05-01T00:04:16;100211.94;;;12.16;73.95
61384;BME280;63511;49.346;8.798;2023-05-01T00:06:43;100204.34;;;12.01;74.83
61384;BME280;63511;49.346;8.798;2023-05-01T00:09:09;100202.31;;;11.96;74.96
61384;BME280;63511;49.346;8.798;2023-05-01T00:11:36;100205.59;;;11.80;75.13
61384;BME280;63511;49.346;8.798;2023-05-01T00:14:05;100193.22;;;11.99;74.89
61384;BME280;63511;49.346;8.798;2023-05-01T00:16:32;100192.59;;;11.88;75.01
61384;BME280;63511;49.346;8.798;2023-05-01T00:19:00;100194.44;;;11.91;75.14
61384;BME280;63511;49.346;8.798;2023-05-01T00:21:27;100189.66;;;11.96;75.17
61384;BME280;63511;49.346;8.798;2023-05-01T00:23:56;100188.31;;;11.87;74.96
61384;BME280;63511;49.346;8.798;2023-05-01T00:26:22;100191.88;;;11.63;75.92
61384;BME280;63511;49.346;8.798;2023-05-01T00:28:53;100193.38;;;11.87;75.16
61384;BME280;63511;49.346;8.798;2023-05-01T00:31:21;100187.81;;;11.93;74.31
61384;BME280;63511;49.346;8.798;2023-05-01T00:33:49;100181.94;;;11.79;75.05
61384;BME280;63511;49.346;8.798;2023-05-01T00:36:15;100173.75;;;11.83;74.24
61384;BME280;63511;49.346;8.798;2023-05-01T00:38:42;100178.13;;;11.86;74.20
61384;BME280;63511;49.346;8.798;2023-05-01T00:41:11;100172.19;;;11.85;74.79
61384;BME280;63511;49.346;8.798;2023-05-01T00:43:40;100170.28;;;11.96;74.82
61384;BME280;63511;49.346;8.798;2023-05-01T00:46:07;100162.22;;;11.74;75.51
61384;BME280;63511;49.346;8.798;2023-05-01T00:48:35;100165.53;;;11.60;76.18
61384;BME280;63511;49.346;8.798;2023-05-01T00:51:02;100162.00;;;11.43;77.46
61384;BME280;63511;49.346;8.798;2023-05-01T00:53:30;100158.63;;;11.57;76.09
61384;BME280;63511;49.346;8.798;2023-05-01T00:55:56;100159.63;;;11.46;76.06
61384;BME280;63511;49.346;8.798;2023-05-01T00:58:23;100156.47;;;11.63;75.72
61384;BME280;63511;49.346;8.798;2023-05-01T01:00:50;100143.63;;;11.73;74.53
61384;BME280;63511;49.346;8.798;2023-05-01T01:03:17;100143.31;;;11.69;74.82
61384;BME280;63511;49.346;8.798;2023-05-01T01:05:45;100142.50;;;11.55;75.46
61384;BME280;63511;49.346;8.798;2023-05-01T01:08:18;100143.81;;;11.63;75.13
61384;BME280;63511;49.346;8.798;2023-05-01T01:10:49;100144.09;;;11.68;75.82
61384;BME280;63511;49.346;8.798;2023-05-01T01:13:19;100141.63;;;11.55;75.30
61384;BME280;63511;49.346;8.798;2023-05-01T01:15:50;100146.50;;;11.51;75.24
61384;BME280;63511;49.346;8.798;2023-05-01T01:18:22;100139.13;;;11.41;75.15
61384;BME280;63511;49.346;8.798;2023-05-01T01:20:53;100135.97;;;11.59;75.52
61384;BME280;63511;49.346;8.798;2023-05-01T01:31:42;100129.25;;;11.59;75.78
61384;BME280;63511;49.346;8.798;2023-05-01T01:34:17;100124.56;;;11.65;74.97
61384;BME280;63511;49.346;8.798;2023-05-01T01:36:46;100134.03;;;11.55;74.48
61384;BME280;63511;49.346;8.798;2023-05-01T01:39:22;100125.63;;;11.13;78.42
61384;BME280;63511;49.346;8.798;2023-05-01T01:41:50;100136.00;;;11.04;77.81
61384;BME280;63511;49.346;8.798;2023-05-01T01:44:19;100129.56;;;11.23;77.35
61384;BME280;63511;49.346;8.798;2023-05-01T01:46:48;100124.69;;;11.26;76.83
61384;BME280;63511;49.346;8.798;2023-05-01T01:49:18;100127.06;;;11.09;77.00
61384;BME280;63511;49.346;8.798;2023-05-01T01:51:45;100130.41;;;11.36;76.66
61384;BME280;63511;49.346;8.798;2023-05-01T01:54:17;100131.09;;;11.34;76.13
61384;BME280;63511;49.346;8.798;2023-05-01T01:56:47;100131.16;;;11.48;75.65
61384;BME280;63511;49.346;8.798;2023-05-01T01:59:15;100129.50;;;11.49;76.29
61384;BME280;63511;49.346;8.798;2023-05-01T02:01:44;100123.19;;;11.42;75.53
61384;BME280;63511;49.346;8.798;2023-05-01T02:04:11;100119.78;;;11.42;76.29
61384;BME280;63511;49.346;8.798;2023-05-01T02:06:41;100123.47;;;11.47;74.97
61384;BME280;63511;49.346;8.798;2023-05-01T02:09:09;100118.66;;;11.51;75.29
61384;BME280;63511;49.346;8.798;2023-05-01T02:11:37;100120.66;;;11.42;75.45
61384;BME280;63511;49.346;8.798;2023-05-01T02:14:04;100115.63;;;11.57;74.69
61384;BME280;63511;49.346;8.798;2023-05-01T02:16:33;100113.84;;;11.41;75.63
61384;BME280;63511;49.346;8.798;2023-05-01T02:19:00;100115.22;;;11.36;75.69
61384;BME280;63511;49.346;8.798;2023-05-01T02:21:30;100116.25;;;11.53;75.55
61384;BME280;63511;49.346;8.798;2023-05-01T02:24:03;100126.31;;;11.38;75.88
61384;BME280;63511;49.346;8.798;2023-05-01T02:26:30;100129.59;;;11.09;76.78
61384;BME280;63511;49.346;8.798;2023-05-01T02:28:59;100125.84;;;11.03;77.55
61384;BME280;63511;49.346;8.798;2023-05-01T02:31:25;100127.66;;;11.05;77.13
61384;BME280;63511;49.346;8.798;2023-05-01T02:33:55;100129.13;;;11.02;76.88
61384;BME280;63511;49.346;8.798;2023-05-01T02:36:21;100133.09;;;11.12;76.14
61384;BME280;63511;49.346;8.798;2023-05-01T02:38:47;100118.00;;;10.72;77.94
61384;BME280;63511;49.346;8.798;2023-05-01T02:41:16;100120.84;;;11.04;76.58
61384;BME280;63511;49.346;8.798;2023-05-01T02:43:46;100121.59;;;11.17;75.86
61384;BME280;63511;49.346;8.798;2023-05-01T02:46:15;100108.00;;;11.15;76.29
61384;BME280;63511;49.346;8.798;2023-05-01T02:48:52;100106.56;;;11.18;75.61
61384;BME280;63511;49.346;8.798;2023-05-01T02:51:19;100114.19;;;10.92;76.65
61384;BME280;63511;49.346;8.798;2023-05-01T02:53:48;100107.59;;;10.81;77.49
61384;BME280;63511;49.346;8.798;2023-05-01T02:56:14;100112.88;;;10.98;75.95
61384;BME280;63511;49.346;8.798;2023-05-01T02:58:42;100107.94;;;11.00;76.16
61384;BME280;63511;49.346;8.798;2023-05-01T03:01:09;100107.38;;;10.78;76.04
61384;BME280;63511;49.346;8.798;2023-05-01T03:03:36;100100.00;;;10.81;76.10
61384;BME280;63511;49.346;8.798;2023-05-01T03:06:03;100097.19;;;10.76;76.29
61384;BME280;63511;49.346;8.798;2023-05-01T03:08:29;100098.63;;;10.73;76.45
61384;BME280;63511;49.346;8.798;2023-05-01T03:10:56;100098.16;;;10.78;76.56
61384;BME280;63511;49.346;8.798;2023-05-01T03:13:23;100099.53;;;10.73;76.83
61384;BME280;63511;49.346;8.798;2023-05-01T03:15:51;100100.69;;;10.91;75.88
61384;BME280;63511;49.346;8.798;2023-05-01T03:18:17;100094.06;;;10.80;76.96
61384;BME280;63511;49.346;8.798;2023-05-01T03:20:49;100098.81;;;10.89;76.41
61384;BME280;63511;49.346;8.798;2023-05-01T03:23:16;100091.59;;;10.67;77.34
61384;BME280;63511;49.346;8.798;2023-05-01T03:25:43;100096.13;;;10.86;76.89
61384;BME280;63511;49.346;8.798;2023-05-01T03:28:09;100089.25;;;10.70;77.25
61384;BME280;63511;49.346;8.798;2023-05-01T03:30:36;100091.44;;;10.79;76.75
61384;BME280;63511;49.346;8.798;2023-05-01T03:33:04;100089.13;;;10.69;76.31
61384;BME280;63511;49.346;8.798;2023-05-01T03:35:31;100082.34;;;10.54;77.14
61384;BME280;63511;49.346;8.798;2023-05-01T03:37:57;100091.38;;;10.38;77.50
61384;BME280;63511;49.346;8.798;2023-05-01T03:40:24;100080.00;;;10.71;76.52
61384;BME280;63511;49.346;8.798;2023-05-01T03:42:51;100078.09;;;10.67;76.11
61384;BME280;63511;49.346;8.798;2023-05-01T03:45:17;100076.03;;;10.48;77.86
61384;BME280;63511;49.346;8.798;2023-05-01T03:47:44;100078.66;;;10.62;77.07
61384;BME280;63511;49.346;8.798;2023-05-01T03:50:12;100079.94;;;10.56;77.70
61384;BME280;63511;49.346;8.798;2023-05-01T03:52:38;100079.34;;;10.47;77.28
61384;BME280;63511;49.346;8.798;2023-05-01T03:55:06;100075.44;;;10.52;78.22
61384;BME280;63511;49.346;8.798;2023-05-01T03:57:33;100074.47;;;10.37;78.33
61384;BME280;63511;49.346;8.798;2023-05-01T04:00:01;100075.56;;;10.40;78.22
61384;BME280;63511;49.346;8.798;2023-05-01T04:02:29;100070.59;;;10.55;76.59
61384;BME280;63511;49.346;8.798;2023-05-01T04:04:56;100074.28;;;10.60;77.00
61384;BME280;63511;49.346;8.798;2023-05-01T04:07:27;100072.44;;;10.57;75.96
61384;BME280;63511;49.346;8.798;2023-05-01T04:09:53;100078.38;;;10.32;77.71
61384;BME280;63511;49.346;8.798;2023-05-01T04:12:20;100083.53;;;10.46;77.67
61384;BME280;63511;49.346;8.798;2023-05-01T04:14:47;100077.59;;;10.59;77.38
61384;BME280;63511;49.346;8.798;2023-05-01T04:17:13;100068.84;;;10.67;77.57
61384;BME280;63511;49.346;8.798;2023-05-01T04:19:40;100071.16;;;10.77;76.35
61384;BME280;63511;49.346;8.798;2023-05-01T04:22:07;100073.09;;;10.68;77.01
61384;BME280;63511;49.346;8.798;2023-05-01T04:24:35;100075.84;;;10.58;77.92
61384;BME280;63511;49.346;8.798;2023-05-01T04:27:01;100071.94;;;10.63;78.73
61384;BME280;63511;49.346;8.798;2023-05-01T04:29:28;100073.25;;;10.56;78.47
61384;BME280;63511;49.346;8.798;2023-05-01T04:31:55;100074.53;;;10.78;77.65
61384;BME280;63511;49.346;8.798;2023-05-01T04:34:22;100074.38;;;10.75;77.70
61384;BME280;63511;49.346;8.798;2023-05-01T04:36:49;100070.69;;;10.83;77.78
61384;BME280;63511;49.346;8.798;2023-05-01T04:39:16;100063.72;;;11.06;76.56
61384;BME280;63511;49.346;8.798;2023-05-01T04:41:44;100064.63;;;11.22;76.24
61384;BME280;63511;49.346;8.798;2023-05-01T04:44:11;100069.50;;;11.19;76.12
61384;BME280;63511;49.346;8.798;2023-05-01T04:46:40;100065.41;;;11.21;76.38
61384;BME280;63511;49.346;8.798;2023-05-01T04:49:07;100062.44;;;11.13;76.65
61384;BME280;63511;49.346;8.798;2023-05-01T04:51:34;100061.50;;;11.26;77.48
61384;BME280;63511;49.346;8.798;2023-05-01T04:54:03;100058.59;;;11.20;77.03
61384;BME280;63511;49.346;8.798;2023-05-01T04:56:30;100052.78;;;11.35;76.41
61384;BME280;63511;49.346;8.798;2023-05-01T04:58:58;100062.38;;;11.26;78.51
61384;BME280;63511;49.346;8.798;2023-05-01T05:01:27;100065.94;;;11.30;78.30
61384;BME280;63511;49.346;8.798;2023-05-01T05:03:53;100068.72;;;11.62;76.67
61384;BME280;63511;49.346;8.798;2023-05-01T05:06:20;100065.19;;;11.73;75.96
61384;BME280;63511;49.346;8.798;2023-05-01T05:08:47;100063.91;;;11.80;75.66
61384;BME280;63511;49.346;8.798;2023-05-01T05:11:16;100057.00;;;11.77;76.46
61384;BME280;63511;49.346;8.798;2023-05-01T05:13:43;100071.91;;;11.73;77.09
61384;BME280;63511;49.346;8.798;2023-05-01T05:16:11;100062.28;;;11.67;77.27
61384;BME280;63511;49.346;8.798;2023-05-01T05:18:38;100064.88;;;11.54;78.24
61384;BME280;63511;49.346;8.798;2023-05-01T05:21:05;100065.66;;;11.53;79.25
61384;BME280;63511;49.346;8.798;2023-05-01T05:23:32;100068.97;;;11.52;78.59
61384;BME280;63511;49.346;8.798;2023-05-01T05:25:59;100072.38;;;12.10;77.29
61384;BME280;63511;49.346;8.798;2023-05-01T05:28:28;100072.09;;;12.20;76.51
61384;BME280;63511;49.346;8.798;2023-05-01T05:30:55;100064.16;;;11.84;77.23
61384;BME280;63511;49.346;8.798;2023-05-01T05:33:23;100062.16;;;11.79;78.13
61384;BME280;63511;49.346;8.798;2023-05-01T05:35:50;100070.53;;;11.92;77.33
61384;BME280;63511;49.346;8.798;2023-05-01T05:38:17;100056.53;;;12.28;77.12
61384;BME280;63511;49.346;8.798;2023-05-01T05:40:43;100052.91;;;12.54;76.00
61384;BME280;63511;49.346;8.798;2023-05-01T05:43:10;100064.97;;;12.58;76.25
61384;BME280;63511;49.346;8.798;2023-05-01T05:45:36;100063.84;;;12.39;78.16
61384;BME280;63511;49.346;8.798;2023-05-01T05:48:03;100064.13;;;12.28;77.68
61384;BME280;63511;49.346;8.798;2023-05-01T05:50:31;100064.31;;;12.31;77.66
61384;BME280;63511;49.346;8.798;2023-05-01T05:52:58;100058.59;;;12.50;77.05
61384;BME280;63511;49.346;8.798;2023-05-01T05:55:24;100056.00;;;12.80;76.89
61384;BME280;63511;49.346;8.798;2023-05-01T05:57:54;100047.91;;;13.17;75.06
61384;BME280;63511;49.346;8.798;2023-05-01T06:00:22;100052.28;;;13.20;75.21
61384;BME280;63511;49.346;8.798;2023-05-01T06:02:49;100046.47;;;13.23;73.71
61384;BME280;63511;49.346;8.798;2023-05-01T06:05:15;100042.50;;;13.11;74.58
61384;BME280;63511;49.346;8.798;2023-05-01T06:07:44;100043.59;;;13.00;74.33
61384;BME280;63511;49.346;8.798;2023-05-01T06:10:10;100041.88;;;13.15;74.45
61384;BME280;63511;49.346;8.798;2023-05-01T06:12:37;100045.28;;;13.16;72.75
61384;BME280;63511;49.346;8.798;2023-05-01T06:15:04;100039.94;;;13.60;71.29
61384;BME280;63511;49.346;8.798;2023-05-01T06:17:31;100043.81;;;13.70;69.48
61384;BME280;63511;49.346;8.798;2023-05-01T06:19:58;100032.00;;;13.70;71.22
61384;BME280;63511;49.346;8.798;2023-05-01T06:22:25;100034.09;;;13.79;70.83
61384;BME280;63511;49.346;8.798;2023-05-01T06:24:56;100035.63;;;14.09;69.48
61384;BME280;63511;49.346;8.798;2023-05-01T06:27:22;100029.91;;;13.45;75.10
61384;BME280;63511;49.346;8.798;2023-05-01T06:29:49;100040.53;;;13.38;74.75
61384;BME280;63511;49.346;8.798;2023-05-01T06:32:16;100036.22;;;13.37;74.14
61384;BME280;63511;49.346;8.798;2023-05-01T06:34:43;100037.78;;;14.01;72.32
61384;BME280;63511;49.346;8.798;2023-05-01T06:37:10;100042.66;;;14.32;72.78
61384;BME280;63511;49.346;8.798;2023-05-01T06:39:36;100038.81;;;14.23;73.73
61384;BME280;63511;49.346;8.798;2023-05-01T06:42:09;100038.03;;;14.24;74.38
61384;BME280;63511;49.346;8.798;2023-05-01T06:44:39;100037.44;;;14.47;72.65
61384;BME280;63511;49.346;8.798;2023-05-01T06:47:09;100035.56;;;14.43;72.89
61384;BME280;63511;49.346;8.798;2023-05-01T06:49:36;100040.19;;;14.69;72.64
61384;BME280;63511;49.346;8.798;2023-05-01T06:52:07;100031.94;;;15.12;71.17
61384;BME280;63511;49.346;8.798;2023-05-01T06:54:34;100036.00;;;14.89;70.28
61384;BME280;63511;49.346;8.798;2023-05-01T06:57:00;100042.69;;;14.87;69.34
61384;BME280;63511;49.346;8.798;2023-05-01T06:59:39;100037.84;;;15.11;69.74
61384;BME280;63511;49.346;8.798;2023-05-01T07:02:05;100041.19;;;14.73;73.31
61384;BME280;63511;49.346;8.798;2023-05-01T07:04:35;100048.19;;;14.41;72.11
61384;BME280;63511;49.346;8.798;2023-05-01T07:07:03;100053.28;;;14.41;72.54
61384;BME280;63511;49.346;8.798;2023-05-01T07:09:33;100048.00;;;14.21;72.92
61384;BME280;63511;49.346;8.798;2023-05-01T07:12:00;100049.88;;;14.59;71.18
61384;BME280;63511;49.346;8.798;2023-05-01T07:14:28;100052.41;;;14.96;70.68
61384;BME280;63511;49.346;8.798;2023-05-01T07:17:01;100043.97;;;15.35;69.00
61384;BME280;63511;49.346;8.798;2023-05-01T07:19:27;100038.72;;;15.90;67.46
61384;BME280;63511;49.346;8.798;2023-05-01T07:21:54;100046.22;;;16.07;67.89
61384;BME280;63511;49.346;8.798;2023-05-01T07:24:20;100030.47;;;16.59;65.90
61384;BME280;63511;49.346;8.798;2023-05-01T07:26:50;100040.41;;;16.10;66.58
61384;BME280;63511;49.346;8.798;2023-05-01T07:29:16;100039.69;;;16.14;68.45
61384;BME280;63511;49.346;8.798;2023-05-01T07:31:44;100042.28;;;15.53;67.26
61384;BME280;63511;49.346;8.798;2023-05-01T07:34:14;100041.44;;;15.94;66.68
61384;BME280;63511;49.346;8.798;2023-05-01T07:36:43;100038.19;;;16.19;64.82
61384;BME280;63511;49.346;8.798;2023-05-01T07:39:10;100037.50;;;15.61;66.66
61384;BME280;63511;49.346;8.798;2023-05-01T07:41:37;100040.94;;;15.23;68.16
61384;BME280;63511;49.346;8.798;2023-05-01T07:44:04;100040.72;;;15.38;66.47
61384;BME280;63511;49.346;8.798;2023-05-01T07:46:31;100034.59;;;15.72;67.33
61384;BME280;63511;49.346;8.798;2023-05-01T07:48:58;100040.31;;;15.48;65.26
61384;BME280;63511;49.346;8.798;2023-05-01T07:51:26;100037.59;;;15.83;59.08
61384;BME280;63511;49.346;8.798;2023-05-01T07:53:55;100043.72;;;15.48;61.12
61384;BME280;63511;49.346;8.798;2023-05-01T07:56:21;100046.72;;;15.99;60.15
61384;BME280;63511;49.346;8.798;2023-05-01T07:58:49;100040.84;;;15.81;60.77
61384;BME280;63511;49.346;8.798;2023-05-01T08:01:18;100038.09;;;15.95;59.02
61384;BME280;63511;49.346;8.798;2023-05-01T08:03:45;100035.78;;;16.65;57.35
61384;BME280;63511;49.346;8.798;2023-05-01T08:06:13;100033.22;;;15.81;61.29
61384;BME280;63511;49.346;8.798;2023-05-01T08:08:41;100031.66;;;16.46;56.82
61384;BME280;63511;49.346;8.798;2023-05-01T08:11:07;100034.53;;;15.92;58.56
61384;BME280;63511;49.346;8.798;2023-05-01T08:13:34;100038.13;;;16.17;59.00
61384;BME280;63511;49.346;8.798;2023-05-01T08:16:00;100034.09;;;16.02;57.36
61384;BME280;63511;49.346;8.798;2023-05-01T08:18:27;100038.09;;;15.36;58.21
61384;BME280;63511;49.346;8.798;2023-05-01T08:20:54;100047.78;;;16.04;57.85
61384;BME280;63511;49.346;8.798;2023-05-01T08:23:21;100042.22;;;16.35;57.25
61384;BME280;63511;49.346;8.798;2023-05-01T08:26:02;100041.88;;;16.26;56.48
61384;BME280;63511;49.346;8.798;2023-05-01T08:28:28;100045.41;;;16.08;56.61
61384;BME280;63511;49.346;8.798;2023-05-01T08:30:55;100041.88;;;15.84;56.83
61384;BME280;63511;49.346;8.798;2023-05-01T08:33:24;100040.13;;;16.25;56.82
61384;BME280;63511;49.346;8.798;2023-05-01T08:35:51;100033.94;;;16.40;58.29
61384;BME280;63511;49.346;8.798;2023-05-01T08:38:18;100045.16;;;16.02;57.52
61384;BME280;63511;49.346;8.798;2023-05-01T08:40:46;100035.22;;;16.29;55.63
61384;BME280;63511;49.346;8.798;2023-05-01T08:43:29;100043.81;;;16.53;56.87
61384;BME280;63511;49.346;8.798;2023-05-01T08:45:59;100038.38;;;16.24;58.54
61384;BME280;63511;49.346;8.798;2023-05-01T08:48:27;100031.88;;;16.73;55.04
61384;BME280;63511;49.346;8.798;2023-05-01T08:50:54;100035.88;;;17.13;55.94
61384;BME280;63511;49.346;8.798;2023-05-01T08:53:23;100037.41;;;16.85;54.82
61384;BME280;63511;49.346;8.798;2023-05-01T08:55:51;100032.72;;;16.74;56.16
61384;BME280;63511;49.346;8.798;2023-05-01T08:58:20;100032.13;;;16.81;55.50
61384;BME280;63511;49.346;8.798;2023-05-01T09:00:49;100035.09;;;16.91;55.55
61384;BME280;63511;49.346;8.798;2023-05-01T09:03:19;100036.13;;;16.74;56.20
61384;BME280;63511;49.346;8.798;2023-05-01T09:05:46;100031.88;;;16.73;55.10
61384;BME280;63511;49.346;8.798;2023-05-01T09:08:13;100020.88;;;17.22;56.40
61384;BME280;63511;49.346;8.798;2023-05-01T09:10:41;100034.53;;;17.00;55.82
61384;BME280;63511;49.346;8.798;2023-05-01T09:13:10;100041.44;;;16.36;56.32
61384;BME280;63511;49.346;8.798;2023-05-01T09:15:38;100038.69;;;16.53;54.59
61384;BME280;63511;49.346;8.798;2023-05-01T09:18:05;100038.09;;;16.59;55.12
61384;BME280;63511;49.346;8.798;2023-05-01T09:20:35;100029.06;;;17.37;54.15
61384;BME280;63511;49.346;8.798;2023-05-01T09:23:04;100027.06;;;17.28;54.33
61384;BME280;63511;49.346;8.798;2023-05-01T09:25:31;100030.22;;;17.69;53.69
61384;BME280;63511;49.346;8.798;2023-05-01T09:27:57;100028.81;;;17.77;52.81
61384;BME280;63511;49.346;8.798;2023-05-01T09:30:31;100026.69;;;17.65;53.42
61384;BME280;63511;49.346;8.798;2023-05-01T09:33:06;100023.63;;;18.01;52.46
61384;BME280;63511;49.346;8.798;2023-05-01T09:35:46;100025.75;;;17.63;53.10
61384;BME280;63511;49.346;8.798;2023-05-01T09:38:16;100025.84;;;18.17;52.41
61384;BME280;63511;49.346;8.798;2023-05-01T09:40:42;100028.31;;;17.89;54.96
61384;BME280;63511;49.346;8.798;2023-05-01T09:43:10;100018.53;;;17.75;53.46
61384;BME280;63511;49.346;8.798;2023-05-01T09:45:37;100028.16;;;18.36;50.38
61384;BME280;63511;49.346;8.798;2023-05-01T09:48:08;100020.63;;;18.41;52.12
61384;BME280;63511;49.346;8.798;2023-05-01T09:50:37;100024.72;;;18.36;51.97
61384;BME280;63511;49.346;8.798;2023-05-01T09:53:15;100020.94;;;18.51;49.98
61384;BME280;63511;49.346;8.798;2023-05-01T09:55:45;100015.41;;;19.24;48.58
61384;BME280;63511;49.346;8.798;2023-05-01T09:58:42;100014.00;;;18.47;53.54
61384;BME280;63511;49.346;8.798;2023-05-01T10:01:38;100018.75;;;17.83;54.45
61384;BME280;63511;49.346;8.798;2023-05-01T10:04:06;100012.31;;;18.75;50.18
61384;BME280;63511;49.346;8.798;2023-05-01T10:06:34;100020.63;;;18.67;47.98
61384;BME280;63511;49.346;8.798;2023-05-01T10:09:01;100014.75;;;18.70;48.88
61384;BME280;63511;49.346;8.798;2023-05-01T10:11:29;100019.53;;;18.34;52.83
61384;BME280;63511;49.346;8.798;2023-05-01T10:14:06;100012.53;;;18.27;53.44
61384;BME280;63511;49.346;8.798;2023-05-01T10:16:34;100020.03;;;18.49;52.73
61384;BME280;63511;49.346;8.798;2023-05-01T10:19:01;100013.25;;;19.39;50.24
61384;BME280;63511;49.346;8.798;2023-05-01T10:21:30;100019.88;;;19.31;52.68
61384;BME280;63511;49.346;8.798;2023-05-01T10:24:00;100023.72;;;18.31;51.96
61384;BME280;63511;49.346;8.798;2023-05-01T10:26:34;100026.75;;;18.19;53.49
61384;BME280;63511;49.346;8.798;2023-05-01T10:29:03;100018.94;;;18.98;52.14
61384;BME280;63511;49.346;8.798;2023-05-01T10:31:30;100025.66;;;18.64;51.77
61384;BME280;63511;49.346;8.798;2023-05-01T10:34:00;100023.97;;;18.38;51.93
61384;BME280;63511;49.346;8.798;2023-05-01T10:36:33;100018.25;;;18.47;52.91
61384;BME280;63511;49.346;8.798;2023-05-01T10:39:05;100021.53;;;18.70;51.07
61384;BME280;63511;49.346;8.798;2023-05-01T10:44:21;100017.03;;;18.91;53.28
61384;BME280;63511;49.346;8.798;2023-05-01T10:46:48;100013.66;;;19.53;49.01
61384;BME280;63511;49.346;8.798;2023-05-01T10:49:16;100012.63;;;18.87;54.17
61384;BME280;63511;49.346;8.798;2023-05-01T10:54:29;100013.31;;;18.81;51.50
61384;BME280;63511;49.346;8.798;2023-05-01T10:56:59;100008.53;;;18.92;50.61
61384;BME280;63511;49.346;8.798;2023-05-01T10:59:28;100001.09;;;18.71;51.82
61384;BME280;63511;49.346;8.798;2023-05-01T11:04:44;100001.03;;;18.68;49.85
61384;BME280;63511;49.346;8.798;2023-05-01T11:08:28;99996.41;;;20.15;49.16
61384;BME280;63511;49.346;8.798;2023-05-01T11:14:00;99988.72;;;20.16;51.32
61384;BME280;63511;49.346;8.798;2023-05-01T11:16:42;100001.53;;;19.79;50.33
61384;BME280;63511;49.346;8.798;2023-05-01T11:19:10;100004.69;;;19.39;51.04
61384;BME280;63511;49.346;8.798;2023-05-01T11:21:37;99989.34;;;20.05;50.43
61384;BME280;63511;49.346;8.798;2023-05-01T11:24:06;99988.88;;;19.86;50.10
61384;BME280;63511;49.346;8.798;2023-05-01T11:26:36;99987.75;;;20.11;49.67
61384;BME280;63511;49.346;8.798;2023-05-01T11:29:04;99983.84;;;20.27;47.60
61384;BME280;63511;49.346;8.798;2023-05-01T11:31:33;99969.47;;;20.71;49.61
61384;BME280;63511;49.346;8.798;2023-05-01T11:34:12;99966.97;;;21.17;45.61
61384;BME280;63511;49.346;8.798;2023-05-01T11:36:52;99963.59;;;21.20;44.08
61384;BME280;63511;49.346;8.798;2023-05-01T11:39:19;99970.66;;;20.48;44.80
61384;BME280;63511;49.346;8.798;2023-05-01T11:41:46;99965.09;;;20.29;44.95
61384;BME280;63511;49.346;8.798;2023-05-01T11:44:14;99976.78;;;19.46;47.45
61384;BME280;63511;49.346;8.798;2023-05-01T11:46:41;99974.94;;;19.42;47.40
61384;BME280;63511;49.346;8.798;2023-05-01T11:49:08;99973.03;;;19.67;51.18
61384;BME280;63511;49.346;8.798;2023-05-01T11:51:35;99964.19;;;19.56;49.40
61384;BME280;63511;49.346;8.798;2023-05-01T11:54:02;99964.47;;;19.66;47.10
61384;BME280;63511;49.346;8.798;2023-05-01T11:56:44;99953.28;;;20.34;48.39
61384;BME280;63511;49.346;8.798;2023-05-01T11:59:26;99959.00;;;20.62;46.17
61384;BME280;63511;49.346;8.798;2023-05-01T12:02:18;99954.63;;;21.00;46.75
61384;BME280;63511;49.346;8.798;2023-05-01T12:04:45;99952.03;;;21.00;43.75
61384;BME280;63511;49.346;8.798;2023-05-01T12:07:23;99941.47;;;21.27;41.71
61384;BME280;63511;49.346;8.798;2023-05-01T12:09:54;99953.25;;;20.73;42.33
61384;BME280;63511;49.346;8.798;2023-05-01T12:12:20;99950.22;;;20.51;44.65
61384;BME280;63511;49.346;8.798;2023-05-01T12:14:48;99945.63;;;20.76;48.80
61384;BME280;63511;49.346;8.798;2023-05-01T12:17:18;99950.44;;;21.03;47.56
61384;BME280;63511;49.346;8.798;2023-05-01T12:19:45;99945.44;;;20.69;45.84
61384;BME280;63511;49.346;8.798;2023-05-01T12:22:13;99948.75;;;20.62;46.83
61384;BME280;63511;49.346;8.798;2023-05-01T12:24:51;99947.53;;;20.88;45.54
61384;BME280;63511;49.346;8.798;2023-05-01T12:27:27;99949.41;;;20.53;46.19
61384;BME280;63511;49.346;8.798;2023-05-01T12:30:06;99949.09;;;20.80;45.32
61384;BME280;63511;49.346;8.798;2023-05-01T12:32:33;99953.00;;;20.61;44.29
61384;BME280;63511;49.346;8.798;2023-05-01T12:35:06;99947.28;;;21.68;44.34
61384;BME280;63511;49.346;8.798;2023-05-01T12:37:50;99947.91;;;21.53;44.38
61384;BME280;63511;49.346;8.798;2023-05-01T12:40:19;99941.88;;;21.51;44.51
61384;BME280;63511;49.346;8.798;2023-05-01T12:42:58;99946.03;;;21.43;47.24
61384;BME280;63511;49.346;8.798;2023-05-01T12:45:26;99949.09;;;21.22;44.56
61384;BME280;63511;49.346;8.798;2023-05-01T12:48:12;99943.91;;;21.19;45.99
61384;BME280;63511;49.346;8.798;2023-05-01T12:50:40;99947.34;;;20.77;44.08
61384;BME280;63511;49.346;8.798;2023-05-01T12:53:07;99940.94;;;20.57;45.24
61384;BME280;63511;49.346;8.798;2023-05-01T12:55:41;99937.50;;;21.00;43.53
61384;BME280;63511;49.346;8.798;2023-05-01T12:58:09;99933.06;;;20.92;42.23
61384;BME280;63511;49.346;8.798;2023-05-01T13:00:56;99939.09;;;20.92;44.84
61384;BME280;63511;49.346;8.798;2023-05-01T13:03:23;99936.59;;;20.55;43.28
61384;BME280;63511;49.346;8.798;2023-05-01T13:05:51;99938.63;;;20.69;46.54
61384;BME280;63511;49.346;8.798;2023-05-01T13:08:23;99939.75;;;20.84;46.42
61384;BME280;63511;49.346;8.798;2023-05-01T13:10:50;99930.34;;;21.28;46.28
61384;BME280;63511;49.346;8.798;2023-05-01T13:13:22;99935.28;;;21.17;44.92
61384;BME280;63511;49.346;8.798;2023-05-01T13:15:50;99935.84;;;21.49;46.95
61384;BME280;63511;49.346;8.798;2023-05-01T13:18:20;99923.84;;;21.01;44.65
61384;BME280;63511;49.346;8.798;2023-05-01T13:20:50;99922.97;;;21.47;45.07
61384;BME280;63511;49.346;8.798;2023-05-01T13:23:19;99930.69;;;22.00;45.03